Terminal Aerodrome Forecast
Issued by NWS

Home | Current Version | Previous Version | Text Only | Print | Product List | Glossary On
Versions: 1 2 3 4 5 6 7 8 9 10 11 12 13 14 15 16 17 18 19 20 21
474
FTUS45 KABQ 020535
TAFTCC
TAF
KTCC 020535Z 0206/0306 05006KT P6SM OVC025
     FM020800 01006KT 6SM BR OVC015
      TEMPO 0210/0214 4SM BR OVC008
     FM021700 VRB06KT P6SM SCT015 BKN070
     FM021900 VRB06KT P6SM SCT050 SCT080=

USA.gov is the U.S. government's official web portal to all federal, state and local government web resources and services.